sensor_id;sensor_type;location;lat;lon;timestamp;temperature;humidity
17795;DHT22;9021;50.882;4.326;2022-12-18T00:01:24;-0.50;99.90
17795;DHT22;9021;50.882;4.326;2022-12-18T00:03:50;-0.40;99.90
17795;DHT22;9021;50.882;4.326;2022-12-18T00:06:16;-0.50;99.90
17795;DHT22;9021;50.882;4.326;2022-12-18T00:08:42;-0.40;99.90
17795;DHT22;9021;50.882;4.326;2022-12-18T00:11:10;0.00;99.90
17795;DHT22;9021;50.882;4.326;2022-12-18T00:13:35;-0.50;99.90
17795;DHT22;9021;50.882;4.326;2022-12-18T00:16:05;-0.40;99.90
17795;DHT22;9021;50.882;4.326;2022-12-18T00:18:30;-0.40;99.90
17795;DHT22;9021;50.882;4.326;2022-12-18T00:21:03;-0.40;99.90
17795;DHT22;9021;50.882;4.326;2022-12-18T00:23:29;-0.30;99.90
17795;DHT22;9021;50.882;4.326;2022-12-18T00:25:58;-0.40;99.90
17795;DHT22;9021;50.882;4.326;2022-12-18T00:28:24;-0.40;99.90
17795;DHT22;9021;50.882;4.326;2022-12-18T00:30:50;-0.50;99.90
17795;DHT22;9021;50.882;4.326;2022-12-18T00:33:17;-0.60;99.90
17795;DHT22;9021;50.882;4.326;2022-12-18T00:35:42;-0.60;99.90
17795;DHT22;9021;50.882;4.326;2022-12-18T00:38:08;-0.60;99.90
17795;DHT22;9021;50.882;4.326;2022-12-18T00:40:33;-0.70;99.90
17795;DHT22;9021;50.882;4.326;2022-12-18T00:42:59;-0.70;99.90
17795;DHT22;9021;50.882;4.326;2022-12-18T00:45:29;-0.60;99.90
17795;DHT22;9021;50.882;4.326;2022-12-18T00:47:55;-0.60;99.90
17795;DHT22;9021;50.882;4.326;2022-12-18T00:50:21;-0.50;99.90
17795;DHT22;9021;50.882;4.326;2022-12-18T00:52:46;-0.50;99.90
17795;DHT22;9021;50.882;4.326;2022-12-18T00:55:12;-0.50;99.90
17795;DHT22;9021;50.882;4.326;2022-12-18T00:57:38;-0.50;99.90
17795;DHT22;9021;50.882;4.326;2022-12-18T01:00:05;-0.50;99.90
17795;DHT22;9021;50.882;4.326;2022-12-18T01:02:31;-0.60;99.90
17795;DHT22;9021;50.882;4.326;2022-12-18T01:04:56;-0.60;99.60
17795;DHT22;9021;50.882;4.326;2022-12-18T01:07:22;-0.60;99.20
17795;DHT22;9021;50.882;4.326;2022-12-18T01:09:47;-0.60;99.20
17795;DHT22;9021;50.882;4.326;2022-12-18T01:12:13;-0.80;99.40
17795;DHT22;9021;50.882;4.326;2022-12-18T01:14:38;-0.90;99.80
17795;DHT22;9021;50.882;4.326;2022-12-18T01:17:04;-0.90;99.90
17795;DHT22;9021;50.882;4.326;2022-12-18T01:19:29;-0.90;99.90
17795;DHT22;9021;50.882;4.326;2022-12-18T01:21:55;-0.80;99.40
17795;DHT22;9021;50.882;4.326;2022-12-18T01:24:20;-0.90;99.40
17795;DHT22;9021;50.882;4.326;2022-12-18T01:26:46;-0.90;99.40
17795;DHT22;9021;50.882;4.326;2022-12-18T01:29:11;-0.90;99.30
17795;DHT22;9021;50.882;4.326;2022-12-18T01:31:37;-1.00;99.10
17795;DHT22;9021;50.882;4.326;2022-12-18T01:34:03;-1.10;99.50
17795;DHT22;9021;50.882;4.326;2022-12-18T01:36:33;-1.20;99.60
17795;DHT22;9021;50.882;4.326;2022-12-18T01:38:59;-1.30;99.90
17795;DHT22;9021;50.882;4.326;2022-12-18T01:41:26;-1.50;99.90
17795;DHT22;9021;50.882;4.326;2022-12-18T01:43:53;-1.30;99.90
17795;DHT22;9021;50.882;4.326;2022-12-18T01:46:21;-1.10;99.90
17795;DHT22;9021;50.882;4.326;2022-12-18T01:48:47;-1.30;99.90
17795;DHT22;9021;50.882;4.326;2022-12-18T01:51:13;-1.30;99.90
17795;DHT22;9021;50.882;4.326;2022-12-18T01:53:39;-1.30;99.80
17795;DHT22;9021;50.882;4.326;2022-12-18T01:56:05;-1.20;99.90
17795;DHT22;9021;50.882;4.326;2022-12-18T02:01:15;-1.10;99.60
17795;DHT22;9021;50.882;4.326;2022-12-18T02:03:41;-1.10;99.40
17795;DHT22;9021;50.882;4.326;2022-12-18T02:09:01;-1.40;99.60
17795;DHT22;9021;50.882;4.326;2022-12-18T02:16:58;-1.40;99.80
17795;DHT22;9021;50.882;4.326;2022-12-18T02:24:46;-1.30;99.40
17795;DHT22;9021;50.882;4.326;2022-12-18T02:27:15;-1.40;99.50
17795;DHT22;9021;50.882;4.326;2022-12-18T02:29:44;-1.60;99.70
17795;DHT22;9021;50.882;4.326;2022-12-18T02:32:13;-1.70;99.90
17795;DHT22;9021;50.882;4.326;2022-12-18T02:34:40;-1.70;99.90
17795;DHT22;9021;50.882;4.326;2022-12-18T02:37:08;-1.70;99.90
17795;DHT22;9021;50.882;4.326;2022-12-18T02:39:35;-1.70;99.90
17795;DHT22;9021;50.882;4.326;2022-12-18T02:42:01;-1.60;99.90
17795;DHT22;9021;50.882;4.326;2022-12-18T02:44:33;-1.60;99.90
17795;DHT22;9021;50.882;4.326;2022-12-18T02:46:58;-1.50;99.90
17795;DHT22;9021;50.882;4.326;2022-12-18T02:51:59;-1.50;99.90
17795;DHT22;9021;50.882;4.326;2022-12-18T02:54:33;-1.50;99.90
17795;DHT22;9021;50.882;4.326;2022-12-18T02:57:05;-1.50;99.90
17795;DHT22;9021;50.882;4.326;2022-12-18T02:59:39;-1.50;99.90
17795;DHT22;9021;50.882;4.326;2022-12-18T03:02:42;-1.50;99.90
17795;DHT22;9021;50.882;4.326;2022-12-18T03:07:35;-1.70;99.90
17795;DHT22;9021;50.882;4.326;2022-12-18T03:10:01;-1.60;99.90
17795;DHT22;9021;50.882;4.326;2022-12-18T03:12:29;-1.60;99.90
17795;DHT22;9021;50.882;4.326;2022-12-18T03:17:22;-1.60;99.90
17795;DHT22;9021;50.882;4.326;2022-12-18T03:19:48;-1.50;99.90
17795;DHT22;9021;50.882;4.326;2022-12-18T03:22:14;-1.40;99.90
17795;DHT22;9021;50.882;4.326;2022-12-18T03:24:41;-1.40;99.70
17795;DHT22;9021;50.882;4.326;2022-12-18T03:27:08;-1.40;99.60
17795;DHT22;9021;50.882;4.326;2022-12-18T03:29:38;-1.50;99.50
17795;DHT22;9021;50.882;4.326;2022-12-18T03:32:11;-1.50;99.60
17795;DHT22;9021;50.882;4.326;2022-12-18T03:34:38;-1.50;99.70
17795;DHT22;9021;50.882;4.326;2022-12-18T03:37:05;-1.60;99.80
17795;DHT22;9021;50.882;4.326;2022-12-18T03:39:31;-1.50;99.80
17795;DHT22;9021;50.882;4.326;2022-12-18T03:44:45;-1.40;99.70
17795;DHT22;9021;50.882;4.326;2022-12-18T03:49:52;-1.40;99.30
17795;DHT22;9021;50.882;4.326;2022-12-18T03:54:45;-1.50;99.30
17795;DHT22;9021;50.882;4.326;2022-12-18T03:57:15;-1.50;99.30
17795;DHT22;9021;50.882;4.326;2022-12-18T03:59:42;-1.50;99.40
17795;DHT22;9021;50.882;4.326;2022-12-18T04:02:09;-1.50;99.40
17795;DHT22;9021;50.882;4.326;2022-12-18T04:04:35;-1.50;99.50
17795;DHT22;9021;50.882;4.326;2022-12-18T04:07:03;-1.50;99.50
17795;DHT22;9021;50.882;4.326;2022-12-18T04:09:29;-1.60;99.40
17795;DHT22;9021;50.882;4.326;2022-12-18T04:11:55;-1.50;99.20
17795;DHT22;9021;50.882;4.326;2022-12-18T04:14:21;-1.50;99.30
17795;DHT22;9021;50.882;4.326;2022-12-18T04:16:46;-1.50;99.30
17795;DHT22;9021;50.882;4.326;2022-12-18T04:19:14;-1.70;99.40
17795;DHT22;9021;50.882;4.326;2022-12-18T04:21:40;-1.60;99.40
17795;DHT22;9021;50.882;4.326;2022-12-18T04:24:06;-1.50;99.50
17795;DHT22;9021;50.882;4.326;2022-12-18T04:26:31;-1.60;99.60
17795;DHT22;9021;50.882;4.326;2022-12-18T04:28:57;-1.60;99.50
17795;DHT22;9021;50.882;4.326;2022-12-18T04:31:22;-1.60;99.40
17795;DHT22;9021;50.882;4.326;2022-12-18T04:33:48;-1.50;99.10
17795;DHT22;9021;50.882;4.326;2022-12-18T04:36:13;-1.50;98.80
17795;DHT22;9021;50.882;4.326;2022-12-18T04:38:39;-1.50;98.60
17795;DHT22;9021;50.882;4.326;2022-12-18T04:41:04;-1.60;98.50
17795;DHT22;9021;50.882;4.326;2022-12-18T04:43:30;-1.70;98.80
17795;DHT22;9021;50.882;4.326;2022-12-18T04:46:05;-1.70;99.00
17795;DHT22;9021;50.882;4.326;2022-12-18T04:48:31;-1.80;99.20
17795;DHT22;9021;50.882;4.326;2022-12-18T04:50:57;-1.80;99.20
17795;DHT22;9021;50.882;4.326;2022-12-18T04:53:22;-1.80;98.90
17795;DHT22;9021;50.882;4.326;2022-12-18T04:55:48;-1.70;98.60
17795;DHT22;9021;50.882;4.326;2022-12-18T04:58:13;-1.80;98.40
17795;DHT22;9021;50.882;4.326;2022-12-18T05:00:39;-1.80;98.30
17795;DHT22;9021;50.882;4.326;2022-12-18T05:03:04;-1.90;98.50
17795;DHT22;9021;50.882;4.326;2022-12-18T05:05:30;-1.90;98.60
17795;DHT22;9021;50.882;4.326;2022-12-18T05:07:56;-1.90;98.50
17795;DHT22;9021;50.882;4.326;2022-12-18T05:10:21;-1.80;98.60
17795;DHT22;9021;50.882;4.326;2022-12-18T05:12:47;-1.80;98.60
17795;DHT22;9021;50.882;4.326;2022-12-18T05:15:28;-1.80;98.50
17795;DHT22;9021;50.882;4.326;2022-12-18T05:17:54;-2.00;98.50
17795;DHT22;9021;50.882;4.326;2022-12-18T05:20:20;-2.00;98.50
17795;DHT22;9021;50.882;4.326;2022-12-18T05:22:45;-1.90;98.40
17795;DHT22;9021;50.882;4.326;2022-12-18T05:25:11;-2.00;98.50
17795;DHT22;9021;50.882;4.326;2022-12-18T05:27:36;-2.00;98.80
17795;DHT22;9021;50.882;4.326;2022-12-18T05:30:02;-1.80;98.80
17795;DHT22;9021;50.882;4.326;2022-12-18T05:32:28;-1.90;98.80
17795;DHT22;9021;50.882;4.326;2022-12-18T05:34:53;-1.80;98.80
17795;DHT22;9021;50.882;4.326;2022-12-18T05:37:19;-1.80;98.90
17795;DHT22;9021;50.882;4.326;2022-12-18T05:39:44;-1.80;98.90
17795;DHT22;9021;50.882;4.326;2022-12-18T05:42:10;-1.80;99.00
17795;DHT22;9021;50.882;4.326;2022-12-18T05:44:35;-1.80;99.10
17795;DHT22;9021;50.882;4.326;2022-12-18T05:47:01;-1.80;98.80
17795;DHT22;9021;50.882;4.326;2022-12-18T05:49:26;-1.70;98.60
17795;DHT22;9021;50.882;4.326;2022-12-18T05:51:52;-1.70;98.40
17795;DHT22;9021;50.882;4.326;2022-12-18T05:54:17;-1.70;98.60
17795;DHT22;9021;50.882;4.326;2022-12-18T05:56:43;-1.80;98.60
17795;DHT22;9021;50.882;4.326;2022-12-18T05:59:08;-1.80;98.80
17795;DHT22;9021;50.882;4.326;2022-12-18T06:01:34;-1.90;98.80
17795;DHT22;9021;50.882;4.326;2022-12-18T06:04:00;-1.80;99.00
17795;DHT22;9021;50.882;4.326;2022-12-18T06:06:26;-1.70;99.00
17795;DHT22;9021;50.882;4.326;2022-12-18T06:08:52;-1.70;98.60
17795;DHT22;9021;50.882;4.326;2022-12-18T06:11:22;-1.60;98.50
17795;DHT22;9021;50.882;4.326;2022-12-18T06:13:56;-1.70;98.40
17795;DHT22;9021;50.882;4.326;2022-12-18T06:16:24;-1.80;98.40
17795;DHT22;9021;50.882;4.326;2022-12-18T06:18:50;-1.90;98.50
17795;DHT22;9021;50.882;4.326;2022-12-18T06:21:16;-1.90;98.60
17795;DHT22;9021;50.882;4.326;2022-12-18T06:23:41;-1.90;98.50
17795;DHT22;9021;50.882;4.326;2022-12-18T06:26:08;-1.90;98.30
17795;DHT22;9021;50.882;4.326;2022-12-18T06:28:33;-1.90;98.30
17795;DHT22;9021;50.882;4.326;2022-12-18T06:30:59;-1.90;98.30
17795;DHT22;9021;50.882;4.326;2022-12-18T06:33:28;-1.90;98.40
17795;DHT22;9021;50.882;4.326;2022-12-18T06:35:53;-1.90;98.40
17795;DHT22;9021;50.882;4.326;2022-12-18T06:38:19;-1.90;98.50
17795;DHT22;9021;50.882;4.326;2022-12-18T06:40:44;-1.90;98.60
17795;DHT22;9021;50.882;4.326;2022-12-18T06:43:10;-1.90;98.70
17795;DHT22;9021;50.882;4.326;2022-12-18T06:45:36;-2.00;98.90
17795;DHT22;9021;50.882;4.326;2022-12-18T06:48:01;-1.90;98.90
17795;DHT22;9021;50.882;4.326;2022-12-18T06:50:27;-2.00;98.70
17795;DHT22;9021;50.882;4.326;2022-12-18T06:52:52;-1.90;98.70
17795;DHT22;9021;50.882;4.326;2022-12-18T06:55:18;-1.90;98.50
17795;DHT22;9021;50.882;4.326;2022-12-18T06:57:43;-2.00;98.80
17795;DHT22;9021;50.882;4.326;2022-12-18T07:00:09;-2.20;99.20
17795;DHT22;9021;50.882;4.326;2022-12-18T07:02:35;-2.10;99.30
17795;DHT22;9021;50.882;4.326;2022-12-18T07:05:00;-2.00;99.00
17795;DHT22;9021;50.882;4.326;2022-12-18T07:07:26;-2.00;99.00
17795;DHT22;9021;50.882;4.326;2022-12-18T07:09:51;-1.90;99.00
17795;DHT22;9021;50.882;4.326;2022-12-18T07:12:17;-2.00;99.00
17795;DHT22;9021;50.882;4.326;2022-12-18T07:14:43;-2.00;99.10
17795;DHT22;9021;50.882;4.326;2022-12-18T07:17:08;-2.00;98.90
17795;DHT22;9021;50.882;4.326;2022-12-18T07:19:34;-1.90;98.90
17795;DHT22;9021;50.882;4.326;2022-12-18T07:21:59;-1.70;98.80
17795;DHT22;9021;50.882;4.326;2022-12-18T07:24:25;-1.80;98.80
17795;DHT22;9021;50.882;4.326;2022-12-18T07:26:51;-1.90;98.80
17795;DHT22;9021;50.882;4.326;2022-12-18T07:29:16;-1.90;98.70
17795;DHT22;9021;50.882;4.326;2022-12-18T07:31:42;-2.00;98.90
17795;DHT22;9021;50.882;4.326;2022-12-18T07:34:11;-2.00;99.00
17795;DHT22;9021;50.882;4.326;2022-12-18T07:36:37;-2.00;99.00
17795;DHT22;9021;50.882;4.326;2022-12-18T07:39:02;-1.90;99.10
17795;DHT22;9021;50.882;4.326;2022-12-18T07:41:28;-2.00;99.00
17795;DHT22;9021;50.882;4.326;2022-12-18T07:43:53;-2.00;99.10
17795;DHT22;9021;50.882;4.326;2022-12-18T07:46:19;-2.10;99.40
17795;DHT22;9021;50.882;4.326;2022-12-18T07:48:45;-2.10;99.50
17795;DHT22;9021;50.882;4.326;2022-12-18T07:51:11;-2.00;99.30
17795;DHT22;9021;50.882;4.326;2022-12-18T07:53:37;-1.90;99.10
17795;DHT22;9021;50.882;4.326;2022-12-18T07:56:04;-1.90;99.00
17795;DHT22;9021;50.882;4.326;2022-12-18T07:58:30;-1.80;98.70
17795;DHT22;9021;50.882;4.326;2022-12-18T08:01:02;-1.80;98.70
17795;DHT22;9021;50.882;4.326;2022-12-18T08:03:28;-1.70;99.00
17795;DHT22;9021;50.882;4.326;2022-12-18T08:05:57;-1.70;98.90
17795;DHT22;9021;50.882;4.326;2022-12-18T08:08:23;-1.60;98.80
17795;DHT22;9021;50.882;4.326;2022-12-18T08:10:48;-1.50;98.60
17795;DHT22;9021;50.882;4.326;2022-12-18T08:13:14;-1.50;98.70
17795;DHT22;9021;50.882;4.326;2022-12-18T08:15:39;-1.50;98.50
17795;DHT22;9021;50.882;4.326;2022-12-18T08:18:05;-1.50;98.70
17795;DHT22;9021;50.882;4.326;2022-12-18T08:20:31;-1.50;98.80
17795;DHT22;9021;50.882;4.326;2022-12-18T08:22:56;-1.30;98.70
17795;DHT22;9021;50.882;4.326;2022-12-18T08:25:23;-1.10;98.40
17795;DHT22;9021;50.882;4.326;2022-12-18T08:27:48;-1.00;98.30
17795;DHT22;9021;50.882;4.326;2022-12-18T08:30:14;-1.00;98.20
17795;DHT22;9021;50.882;4.326;2022-12-18T08:32:39;-0.90;98.30
17795;DHT22;9021;50.882;4.326;2022-12-18T08:35:05;-0.70;98.00
17795;DHT22;9021;50.882;4.326;2022-12-18T08:37:31;-0.70;97.90
17795;DHT22;9021;50.882;4.326;2022-12-18T08:39:56;-0.80;97.90
17795;DHT22;9021;50.882;4.326;2022-12-18T08:42:22;-0.80;97.90
17795;DHT22;9021;50.882;4.326;2022-12-18T08:45:06;-0.30;98.20
17795;DHT22;9021;50.882;4.326;2022-12-18T08:47:32;-0.80;98.20
17795;DHT22;9021;50.882;4.326;2022-12-18T08:49:57;-0.80;98.20
17795;DHT22;9021;50.882;4.326;2022-12-18T08:52:23;-0.80;98.20
17795;DHT22;9021;50.882;4.326;2022-12-18T08:54:48;-0.70;98.30
17795;DHT22;9021;50.882;4.326;2022-12-18T08:57:14;-0.50;98.30
17795;DHT22;9021;50.882;4.326;2022-12-18T08:59:39;-0.50;98.40
17795;DHT22;9021;50.882;4.326;2022-12-18T09:02:05;-0.30;98.10
17795;DHT22;9021;50.882;4.326;2022-12-18T09:04:30;-0.10;98.00
17795;DHT22;9021;50.882;4.326;2022-12-18T09:06:56;0.00;97.60
17795;DHT22;9021;50.882;4.326;2022-12-18T09:09:21;0.20;97.40
17795;DHT22;9021;50.882;4.326;2022-12-18T09:11:47;0.20;97.40
17795;DHT22;9021;50.882;4.326;2022-12-18T09:14:12;0.40;96.40
17795;DHT22;9021;50.882;4.326;2022-12-18T09:16:38;0.60;95.70
17795;DHT22;9021;50.882;4.326;2022-12-18T09:19:04;0.60;95.20
17795;DHT22;9021;50.882;4.326;2022-12-18T09:21:30;0.60;95.10
17795;DHT22;9021;50.882;4.326;2022-12-18T09:23:56;0.60;95.00
17795;DHT22;9021;50.882;4.326;2022-12-18T09:26:22;0.60;95.00
17795;DHT22;9021;50.882;4.326;2022-12-18T09:28:47;0.70;94.80
17795;DHT22;9021;50.882;4.326;2022-12-18T09:31:14;0.70;94.80
17795;DHT22;9021;50.882;4.326;2022-12-18T09:33:41;0.80;94.70
17795;DHT22;9021;50.882;4.326;2022-12-18T09:36:07;0.80;94.70
17795;DHT22;9021;50.882;4.326;2022-12-18T09:38:33;0.70;94.60
17795;DHT22;9021;50.882;4.326;2022-12-18T09:41:00;0.70;94.70
17795;DHT22;9021;50.882;4.326;2022-12-18T09:43:28;0.70;94.70
17795;DHT22;9021;50.882;4.326;2022-12-18T09:45:57;0.80;94.60
17795;DHT22;9021;50.882;4.326;2022-12-18T09:48:37;0.90;94.50
17795;DHT22;9021;50.882;4.326;2022-12-18T09:51:51;0.90;94.50
17795;DHT22;9021;50.882;4.326;2022-12-18T09:53:52;1.00;94.40
17795;DHT22;9021;50.882;4.326;2022-12-18T09:56:19;1.10;94.30
17795;DHT22;9021;50.882;4.326;2022-12-18T10:04:05;1.10;94.30
17795;DHT22;9021;50.882;4.326;2022-12-18T10:09:05;1.20;94.20
17795;DHT22;9021;50.882;4.326;2022-12-18T10:14:07;1.30;94.00
17795;DHT22;9021;50.882;4.326;2022-12-18T10:24:37;1.70;93.60
17795;DHT22;9021;50.882;4.326;2022-12-18T10:27:18;1.70;93.50
17795;DHT22;9021;50.882;4.326;2022-12-18T10:29:44;1.70;93.30
17795;DHT22;9021;50.882;4.326;2022-12-18T10:32:17;1.70;93.60
17795;DHT22;9021;50.882;4.326;2022-12-18T10:34:47;1.70;93.50
17795;DHT22;9021;50.882;4.326;2022-12-18T10:37:16;1.70;93.50
17795;DHT22;9021;50.882;4.326;2022-12-18T10:39:42;1.70;93.60
17795;DHT22;9021;50.882;4.326;2022-12-18T10:42:15;1.80;93.30
17795;DHT22;9021;50.882;4.326;2022-12-18T10:44:41;1.90;93.30
17795;DHT22;9021;50.882;4.326;2022-12-18T10:47:10;1.90;93.20
17795;DHT22;9021;50.882;4.326;2022-12-18T10:49:37;2.30;93.20
17795;DHT22;9021;50.882;4.326;2022-12-18T10:52:17;2.10;93.00
17795;DHT22;9021;50.882;4.326;2022-12-18T10:54:46;2.20;92.90
17795;DHT22;9021;50.882;4.326;2022-12-18T10:57:16;2.30;92.80
17795;DHT22;9021;50.882;4.326;2022-12-18T10:59:52;2.50;92.70
17795;DHT22;9021;50.882;4.326;2022-12-18T11:02:27;2.60;92.60
17795;DHT22;9021;50.882;4.326;2022-12-18T11:04:52;2.90;92.50
17795;DHT22;9021;50.882;4.326;2022-12-18T11:07:18;3.00;92.50
17795;DHT22;9021;50.882;4.326;2022-12-18T11:09:43;3.00;92.20
17795;DHT22;9021;50.882;4.326;2022-12-18T11:12:24;3.20;92.40
17795;DHT22;9021;50.882;4.326;2022-12-18T11:14:50;3.10;92.50
17795;DHT22;9021;50.882;4.326;2022-12-18T11:17:35;3.20;92.30
17795;DHT22;9021;50.882;4.326;2022-12-18T11:20:01;3.20;91.90
17795;DHT22;9021;50.882;4.326;2022-12-18T11:22:31;3.60;91.50
17795;DHT22;9021;50.882;4.326;2022-12-18T11:24:59;3.40;91.40
17795;DHT22;9021;50.882;4.326;2022-12-18T11:27:25;3.20;91.40
17795;DHT22;9021;50.882;4.326;2022-12-18T11:29:52;3.10;91.60
17795;DHT22;9021;50.882;4.326;2022-12-18T11:32:24;3.30;91.50
17795;DHT22;9021;50.882;4.326;2022-12-18T11:34:54;3.20;91.50
17795;DHT22;9021;50.882;4.326;2022-12-18T11:37:23;3.00;91.70
17795;DHT22;9021;50.882;4.326;2022-12-18T11:39:53;2.80;91.90
17795;DHT22;9021;50.882;4.326;2022-12-18T11:42:22;3.00;91.80
17795;DHT22;9021;50.882;4.326;2022-12-18T11:44:54;3.60;92.00
17795;DHT22;9021;50.882;4.326;2022-12-18T11:49:50;3.20;91.60
17795;DHT22;9021;50.882;4.326;2022-12-18T11:54:42;3.00;91.90
17795;DHT22;9021;50.882;4.326;2022-12-18T11:57:55;3.00;91.90
17795;DHT22;9021;50.882;4.326;2022-12-18T12:00:13;3.10;91.80
17795;DHT22;9021;50.882;4.326;2022-12-18T12:07:46;2.90;92.30
17795;DHT22;9021;50.882;4.326;2022-12-18T12:15:27;3.30;91.80
17795;DHT22;9021;50.882;4.326;2022-12-18T12:18:16;3.30;91.60
17795;DHT22;9021;50.882;4.326;2022-12-18T12:23:34;3.20;91.80
17795;DHT22;9021;50.882;4.326;2022-12-18T12:26:03;3.20;91.70
17795;DHT22;9021;50.882;4.326;2022-12-18T12:33:43;3.20;91.90
17795;DHT22;9021;50.882;4.326;2022-12-18T12:38:43;3.20;92.00
17795;DHT22;9021;50.882;4.326;2022-12-18T12:41:12;3.50;92.00
17795;DHT22;9021;50.882;4.326;2022-12-18T12:44:00;3.40;91.40
17795;DHT22;9021;50.882;4.326;2022-12-18T12:46:26;3.30;91.70
17795;DHT22;9021;50.882;4.326;2022-12-18T12:48:54;3.50;91.70
17795;DHT22;9021;50.882;4.326;2022-12-18T12:53:46;3.60;91.30
17795;DHT22;9021;50.882;4.326;2022-12-18T12:56:13;3.50;91.40
17795;DHT22;9021;50.882;4.326;2022-12-18T13:01:17;3.30;91.80
17795;DHT22;9021;50.882;4.326;2022-12-18T13:03:53;3.20;91.90
17795;DHT22;9021;50.882;4.326;2022-12-18T13:06:23;3.10;92.10
17795;DHT22;9021;50.882;4.326;2022-12-18T13:08:56;3.30;92.00
17795;DHT22;9021;50.882;4.326;2022-12-18T13:14:49;3.50;91.70
17795;DHT22;9021;50.882;4.326;2022-12-18T13:19:51;3.70;91.70
17795;DHT22;9021;50.882;4.326;2022-12-18T13:24:46;3.60;91.70
17795;DHT22;9021;50.882;4.326;2022-12-18T13:29:55;3.70;91.70
17795;DHT22;9021;50.882;4.326;2022-12-18T13:32:24;3.60;91.90
17795;DHT22;9021;50.882;4.326;2022-12-18T13:37:41;3.60;91.80
17795;DHT22;9021;50.882;4.326;2022-12-18T13:42:51;3.30;92.20
17795;DHT22;9021;50.882;4.326;2022-12-18T13:45:40;3.20;92.40
17795;DHT22;9021;50.882;4.326;2022-12-18T13:48:21;3.30;92.40
17795;DHT22;9021;50.882;4.326;2022-12-18T13:50:57;3.40;92.30
17795;DHT22;9021;50.882;4.326;2022-12-18T13:53:34;3.30;92.40
17795;DHT22;9021;50.882;4.326;2022-12-18T13:56:01;3.10;92.60
17795;DHT22;9021;50.882;4.326;2022-12-18T13:58:27;3.20;92.70
17795;DHT22;9021;50.882;4.326;2022-12-18T14:00:52;3.10;92.80
17795;DHT22;9021;50.882;4.326;2022-12-18T14:03:22;3.20;92.70
17795;DHT22;9021;50.882;4.326;2022-12-18T14:06:10;3.20;92.60
17795;DHT22;9021;50.882;4.326;2022-12-18T14:08:40;3.10;92.80
17795;DHT22;9021;50.882;4.326;2022-12-18T14:11:06;3.00;92.80
17795;DHT22;9021;50.882;4.326;2022-12-18T14:13:35;3.10;92.90
17795;DHT22;9021;50.882;4.326;2022-12-18T14:16:02;3.10;93.00
17795;DHT22;9021;50.882;4.326;2022-12-18T14:21:23;2.80;93.30
17795;DHT22;9021;50.882;4.326;2022-12-18T14:24:02;2.80;93.50
17795;DHT22;9021;50.882;4.326;2022-12-18T14:26:29;3.10;93.50
17795;DHT22;9021;50.882;4.326;2022-12-18T14:28:55;2.80;93.50
17795;DHT22;9021;50.882;4.326;2022-12-18T14:31:22;2.90;93.50
17795;DHT22;9021;50.882;4.326;2022-12-18T14:33:48;3.20;93.20
17795;DHT22;9021;50.882;4.326;2022-12-18T14:36:20;3.20;93.20
17795;DHT22;9021;50.882;4.326;2022-12-18T14:38:50;3.10;93.10
17795;DHT22;9021;50.882;4.326;2022-12-18T14:41:17;3.20;93.00
17795;DHT22;9021;50.882;4.326;2022-12-18T14:43:43;3.20;92.90
17795;DHT22;9021;50.882;4.326;2022-12-18T14:48:54;3.20;93.00
17795;DHT22;9021;50.882;4.326;2022-12-18T14:51:26;3.20;92.90
17795;DHT22;9021;50.882;4.326;2022-12-18T14:53:56;3.10;93.20
17795;DHT22;9021;50.882;4.326;2022-12-18T14:56:26;3.00;93.20
17795;DHT22;9021;50.882;4.326;2022-12-18T14:59:04;3.00;93.20
17795;DHT22;9021;50.882;4.326;2022-12-18T15:01:34;3.10;93.10
17795;DHT22;9021;50.882;4.326;2022-12-18T15:04:01;2.90;93.30
17795;DHT22;9021;50.882;4.326;2022-12-18T15:06:29;3.00;93.20
17795;DHT22;9021;50.882;4.326;2022-12-18T15:08:56;3.00;93.00
17795;DHT22;9021;50.882;4.326;2022-12-18T15:13:51;3.10;92.80
17795;DHT22;9021;50.882;4.326;2022-12-18T15:16:18;3.10;92.90
17795;DHT22;9021;50.882;4.326;2022-12-18T15:18:43;3.10;92.80
17795;DHT22;9021;50.882;4.326;2022-12-18T15:21:17;3.10;93.00
17795;DHT22;9021;50.882;4.326;2022-12-18T15:26:09;3.00;93.00
17795;DHT22;9021;50.882;4.326;2022-12-18T15:28:39;2.90;92.90
17795;DHT22;9021;50.882;4.326;2022-12-18T15:33:40;3.00;92.90
17795;DHT22;9021;50.882;4.326;2022-12-18T15:36:10;2.90;92.80
17795;DHT22;9021;50.882;4.326;2022-12-18T15:38:35;3.20;92.60
17795;DHT22;9021;50.882;4.326;2022-12-18T15:41:01;3.10;92.70
17795;DHT22;9021;50.882;4.326;2022-12-18T15:43:27;3.10;92.60
17795;DHT22;9021;50.882;4.326;2022-12-18T15:46:02;3.10;92.50
17795;DHT22;9021;50.882;4.326;2022-12-18T15:48:28;3.00;92.60
17795;DHT22;9021;50.882;4.326;2022-12-18T15:50:55;3.00;92.70
17795;DHT22;9021;50.882;4.326;2022-12-18T15:53:22;2.90;92.80
17795;DHT22;9021;50.882;4.326;2022-12-18T15:55:48;3.10;92.80
17795;DHT22;9021;50.882;4.326;2022-12-18T15:58:32;3.00;92.70
17795;DHT22;9021;50.882;4.326;2022-12-18T16:00:58;2.90;92.90
17795;DHT22;9021;50.882;4.326;2022-12-18T16:03:24;3.00;92.90
17795;DHT22;9021;50.882;4.326;2022-12-18T16:05:49;3.20;92.60
17795;DHT22;9021;50.882;4.326;2022-12-18T16:08:15;3.30;92.30
17795;DHT22;9021;50.882;4.326;2022-12-18T16:10:40;3.20;92.40
17795;DHT22;9021;50.882;4.326;2022-12-18T16:13:10;3.10;92.60
17795;DHT22;9021;50.882;4.326;2022-12-18T16:15:35;3.30;92.60
17795;DHT22;9021;50.882;4.326;2022-12-18T16:18:01;3.40;92.50
17795;DHT22;9021;50.882;4.326;2022-12-18T16:20:26;3.40;92.60
17795;DHT22;9021;50.882;4.326;2022-12-18T16:22:52;3.30;92.20
17795;DHT22;9021;50.882;4.326;2022-12-18T16:25:25;3.30;92.20
17795;DHT22;9021;50.882;4.326;2022-12-18T16:27:51;3.20;92.30
17795;DHT22;9021;50.882;4.326;2022-12-18T16:30:18;3.30;92.40
17795;DHT22;9021;50.882;4.326;2022-12-18T16:32:44;3.40;92.00
17795;DHT22;9021;50.882;4.326;2022-12-18T16:35:13;3.40;92.10
17795;DHT22;9021;50.882;4.326;2022-12-18T16:37:40;3.40;92.10
17795;DHT22;9021;50.882;4.326;2022-12-18T16:40:06;3.40;92.00
17795;DHT22;9021;50.882;4.326;2022-12-18T16:42:34;3.40;92.00
17795;DHT22;9021;50.882;4.326;2022-12-18T16:45:00;3.50;92.30
17795;DHT22;9021;50.882;4.326;2022-12-18T16:47:25;3.40;91.70
17795;DHT22;9021;50.882;4.326;2022-12-18T16:49:51;3.50;92.00
17795;DHT22;9021;50.882;4.326;2022-12-18T16:52:17;3.40;92.00
17795;DHT22;9021;50.882;4.326;2022-12-18T16:54:43;3.40;91.80
17795;DHT22;9021;50.882;4.326;2022-12-18T16:57:12;3.30;92.00
17795;DHT22;9021;50.882;4.326;2022-12-18T16:59:37;3.30;91.80
17795;DHT22;9021;50.882;4.326;2022-12-18T17:02:03;3.20;92.10
17795;DHT22;9021;50.882;4.326;2022-12-18T17:04:28;3.20;92.40
17795;DHT22;9021;50.882;4.326;2022-12-18T17:06:54;3.30;92.50
17795;DHT22;9021;50.882;4.326;2022-12-18T17:09:20;3.20;92.30
17795;DHT22;9021;50.882;4.326;2022-12-18T17:11:52;3.20;92.50
17795;DHT22;9021;50.882;4.326;2022-12-18T17:14:19;3.10;92.60
17795;DHT22;9021;50.882;4.326;2022-12-18T17:16:45;3.00;93.00
17795;DHT22;9021;50.882;4.326;2022-12-18T17:19:11;3.30;92.60
17795;DHT22;9021;50.882;4.326;2022-12-18T17:21:36;3.50;92.50
17795;DHT22;9021;50.882;4.326;2022-12-18T17:24:02;3.50;92.60
17795;DHT22;9021;50.882;4.326;2022-12-18T17:26:28;3.50;92.80
17795;DHT22;9021;50.882;4.326;2022-12-18T17:28:57;3.40;92.90
17795;DHT22;9021;50.882;4.326;2022-12-18T17:31:23;3.40;93.10
17795;DHT22;9021;50.882;4.326;2022-12-18T17:33:50;3.40;93.30
17795;DHT22;9021;50.882;4.326;2022-12-18T17:36:15;3.40;93.40
17795;DHT22;9021;50.882;4.326;2022-12-18T17:38:41;3.30;93.70
17795;DHT22;9021;50.882;4.326;2022-12-18T17:41:08;3.40;93.90
17795;DHT22;9021;50.882;4.326;2022-12-18T17:43:34;3.30;94.20
17795;DHT22;9021;50.882;4.326;2022-12-18T17:46:04;3.40;94.20